createdAt,value
2018-05-09T00:00:45.939Z,24.89
2018-05-09T00:02:06.960Z,24.82
2018-05-09T00:02:45.931Z,24.88
2018-05-09T00:03:45.917Z,24.81
2018-05-09T00:04:45.917Z,24.85
2018-05-09T00:05:45.926Z,24.81
2018-05-09T00:06:45.905Z,24.84
2018-05-09T00:08:06.913Z,24.86
2018-05-09T00:08:45.900Z,24.81
2018-05-09T00:09:45.912Z,24.85
2018-05-09T00:10:45.888Z,24.77
2018-05-09T00:11:45.887Z,24.79
2018-05-09T00:12:45.886Z,24.82
2018-05-09T00:14:06.878Z,24.79
2018-05-09T00:14:45.865Z,24.82
2018-05-09T00:15:45.875Z,24.81
2018-05-09T00:16:45.865Z,24.81
2018-05-09T00:17:45.875Z,24.84
2018-05-09T00:18:45.844Z,24.78
2018-05-09T00:20:06.858Z,24.78
2018-05-09T00:20:45.841Z,24.78
2018-05-09T00:21:45.829Z,24.78
2018-05-09T00:22:45.826Z,24.78
2018-05-09T00:23:45.821Z,24.77
2018-05-09T00:24:45.819Z,24.75
2018-05-09T00:26:06.820Z,24.68
2018-05-09T00:26:45.807Z,24.74
2018-05-09T00:27:45.806Z,24.78
2018-05-09T00:28:45.805Z,24.78
2018-05-09T00:29:45.807Z,24.69
2018-05-09T00:30:45.790Z,24.69
2018-05-09T00:32:06.790Z,24.66
2018-05-09T00:32:45.800Z,24.66
2018-05-09T00:33:45.781Z,24.69
2018-05-09T00:34:45.784Z,24.71
2018-05-09T00:35:45.775Z,24.69
2018-05-09T00:36:45.757Z,24.69
2018-05-09T00:38:06.764Z,24.65
2018-05-09T00:38:45.755Z,24.71
2018-05-09T00:39:45.747Z,24.68
2018-05-09T00:40:45.740Z,24.74
2018-05-09T00:41:45.870Z,24.63
2018-05-09T00:42:45.740Z,24.68
2018-05-09T00:44:06.733Z,24.65
2018-05-09T00:44:45.727Z,24.69
2018-05-09T00:45:45.720Z,24.65
2018-05-09T00:46:45.717Z,24.68
2018-05-09T00:47:45.705Z,24.63
2018-05-09T00:48:45.707Z,24.66
2018-05-09T00:50:06.796Z,24.69
2018-05-09T00:50:45.752Z,24.66
2018-05-09T00:51:45.694Z,24.65
2018-05-09T00:52:45.691Z,24.75
2018-05-09T00:53:45.687Z,24.65
2018-05-09T00:54:45.683Z,24.63
2018-05-09T00:56:06.682Z,24.62
2018-05-09T00:56:45.672Z,24.68
2018-05-09T00:57:45.664Z,24.63
2018-05-09T00:58:45.657Z,24.65
2018-05-09T00:59:45.654Z,24.66
2018-05-09T01:00:45.646Z,24.69
2018-05-09T01:02:06.648Z,24.63
2018-05-09T01:02:45.644Z,24.59
2018-05-09T01:03:45.632Z,24.61
2018-05-09T01:04:45.631Z,24.65
2018-05-09T01:05:45.624Z,24.61
2018-05-09T01:06:45.619Z,24.59
2018-05-09T01:08:06.619Z,24.65
2018-05-09T01:08:45.620Z,24.62
2018-05-09T01:09:45.618Z,24.56
2018-05-09T01:10:45.604Z,24.68
2018-05-09T01:11:45.597Z,24.62
2018-05-09T01:12:45.599Z,24.62
2018-05-09T01:14:06.593Z,24.55
2018-05-09T01:14:45.584Z,24.61
2018-05-09T01:15:45.581Z,24.61
2018-05-09T01:16:45.572Z,24.59
2018-05-09T01:17:45.580Z,24.59
2018-05-09T01:18:45.565Z,24.56
2018-05-09T01:20:06.573Z,24.56
2018-05-09T01:20:45.548Z,24.58
2018-05-09T01:21:45.551Z,24.61
2018-05-09T01:22:45.541Z,24.55
2018-05-09T01:23:45.541Z,24.58
2018-05-09T01:24:45.538Z,24.48
2018-05-09T01:26:06.534Z,24.53
2018-05-09T01:26:45.524Z,24.63
2018-05-09T01:27:45.528Z,24.61
2018-05-09T01:28:45.519Z,24.48
2018-05-09T01:29:45.522Z,24.47
2018-05-09T01:30:45.509Z,24.47
2018-05-09T01:32:06.510Z,24.46
2018-05-09T01:32:45.502Z,24.55
2018-05-09T01:33:45.491Z,24.55
2018-05-09T01:34:45.493Z,24.48
2018-05-09T01:35:45.485Z,24.53
2018-05-09T01:36:45.479Z,24.55
2018-05-09T01:38:06.483Z,24.43
2018-05-09T01:38:45.467Z,24.44
2018-05-09T01:39:45.460Z,24.47
2018-05-09T01:40:45.461Z,24.43
2018-05-09T01:41:45.450Z,24.46
2018-05-09T01:42:45.447Z,24.46
2018-05-09T01:44:06.452Z,24.50
2018-05-09T01:44:45.445Z,24.46
2018-05-09T01:45:45.430Z,24.50
2018-05-09T01:46:45.430Z,24.44
2018-05-09T01:47:45.428Z,24.43
2018-05-09T01:48:45.425Z,24.41
2018-05-09T01:50:06.429Z,24.43
2018-05-09T01:50:45.415Z,24.44
2018-05-09T01:51:45.405Z,24.44
2018-05-09T01:52:45.408Z,24.44
2018-05-09T01:53:45.399Z,24.48
2018-05-09T01:54:45.393Z,24.46
2018-05-09T01:56:06.406Z,24.47
2018-05-09T01:56:45.379Z,24.47
2018-05-09T01:57:45.373Z,24.46
2018-05-09T01:58:45.371Z,24.43
2018-05-09T01:59:45.369Z,24.44
2018-05-09T02:00:45.363Z,24.43
2018-05-09T02:02:06.365Z,24.44
2018-05-09T02:02:45.353Z,24.37
2018-05-09T02:03:45.345Z,24.44
2018-05-09T02:04:45.341Z,24.43
2018-05-09T02:05:45.336Z,24.43
2018-05-09T02:06:45.331Z,24.47
2018-05-09T02:08:06.339Z,24.44
2018-05-09T02:08:45.327Z,24.40
2018-05-09T02:09:45.324Z,24.36
2018-05-09T02:10:45.319Z,24.36
2018-05-09T02:11:45.310Z,24.38
2018-05-09T02:12:45.313Z,24.41
2018-05-09T02:14:06.316Z,24.38
2018-05-09T02:14:45.295Z,24.36
2018-05-09T02:15:45.296Z,24.34
2018-05-09T02:16:45.286Z,24.43
2018-05-09T02:17:45.282Z,24.32
2018-05-09T02:18:45.275Z,24.36
2018-05-09T02:20:06.273Z,24.34
2018-05-09T02:20:45.260Z,24.40
2018-05-09T02:21:45.258Z,24.36
2018-05-09T02:22:45.254Z,24.32
2018-05-09T02:23:45.256Z,24.32
2018-05-09T02:24:45.245Z,24.34
2018-05-09T02:26:06.243Z,24.36
2018-05-09T02:26:45.240Z,24.31
2018-05-09T02:27:45.241Z,24.31
2018-05-09T02:28:45.226Z,24.32
2018-05-09T02:29:45.227Z,24.37
2018-05-09T02:30:45.228Z,24.37
2018-05-09T02:32:06.232Z,24.36
2018-05-09T02:32:45.209Z,24.36
2018-05-09T02:33:45.203Z,24.38
2018-05-09T02:34:45.203Z,24.29
2018-05-09T02:35:45.193Z,24.38
2018-05-09T02:36:45.189Z,24.40
2018-05-09T02:38:06.200Z,24.41
2018-05-09T02:38:45.177Z,24.25
2018-05-09T02:39:45.172Z,24.32
2018-05-09T02:40:45.169Z,24.29
2018-05-09T02:41:45.166Z,24.28
2018-05-09T02:42:45.168Z,24.36
2018-05-09T02:44:06.157Z,24.31
2018-05-09T02:44:45.169Z,24.37
2018-05-09T02:45:45.141Z,24.34
2018-05-09T02:46:45.146Z,24.37
2018-05-09T02:47:45.135Z,24.32
2018-05-09T02:48:45.135Z,24.32
2018-05-09T02:50:06.133Z,24.29
2018-05-09T02:50:45.125Z,24.29
2018-05-09T02:51:45.123Z,24.29
2018-05-09T02:52:45.118Z,24.26
2018-05-09T02:53:45.111Z,24.29
2018-05-09T02:54:45.097Z,24.28
2018-05-09T02:56:06.110Z,24.24
2018-05-09T02:56:45.090Z,24.29
2018-05-09T02:57:45.086Z,24.25
2018-05-09T02:58:45.080Z,24.31
2018-05-09T02:59:45.091Z,24.32
2018-05-09T03:00:45.071Z,24.28
2018-05-09T03:02:06.072Z,24.26
2018-05-09T03:02:45.069Z,24.26
2018-05-09T03:03:45.064Z,24.28
2018-05-09T03:04:45.051Z,24.31
2018-05-09T03:05:45.052Z,24.14
2018-05-09T03:06:45.041Z,24.21
2018-05-09T03:08:06.047Z,24.19
2018-05-09T03:08:45.034Z,24.19
2018-05-09T03:09:45.034Z,24.19
2018-05-09T03:10:45.024Z,24.14
2018-05-09T03:11:45.016Z,24.22
2018-05-09T03:12:45.014Z,24.25
2018-05-09T03:14:06.030Z,24.28
2018-05-09T03:14:44.999Z,24.26
2018-05-09T03:15:44.993Z,24.25
2018-05-09T03:16:44.996Z,24.22
2018-05-09T03:17:44.983Z,24.28
2018-05-09T03:18:44.977Z,24.25
2018-05-09T03:20:05.990Z,24.16
2018-05-09T03:20:44.970Z,24.19
2018-05-09T03:21:44.964Z,24.21
2018-05-09T03:22:44.957Z,24.26
2018-05-09T03:23:44.958Z,24.26
2018-05-09T03:24:44.957Z,24.16
2018-05-09T03:26:05.951Z,24.24
2018-05-09T03:26:44.943Z,24.22
2018-05-09T03:27:44.955Z,24.18
2018-05-09T03:28:44.936Z,24.28
2018-05-09T03:29:44.960Z,24.22
2018-05-09T03:30:44.928Z,24.25
2018-05-09T03:32:05.924Z,24.22
2018-05-09T03:32:44.908Z,24.29
2018-05-09T03:33:44.909Z,24.19
2018-05-09T03:34:44.906Z,24.31
2018-05-09T03:35:44.898Z,24.22
2018-05-09T03:36:44.891Z,24.28
2018-05-09T03:38:05.889Z,24.18
2018-05-09T03:38:44.879Z,24.22
2018-05-09T03:39:44.872Z,24.24
2018-05-09T03:40:44.875Z,24.19
2018-05-09T03:41:44.866Z,24.26
2018-05-09T03:42:44.868Z,24.31
2018-05-09T03:44:05.875Z,24.31
2018-05-09T03:44:44.855Z,24.40
2018-05-09T03:45:44.851Z,24.28
2018-05-09T03:46:44.869Z,24.26
2018-05-09T03:47:44.846Z,24.29
2018-05-09T03:48:44.840Z,24.32
2018-05-09T03:50:05.840Z,24.38
2018-05-09T03:50:44.832Z,24.36
2018-05-09T03:51:44.819Z,24.38
2018-05-09T03:52:44.809Z,24.36
2018-05-09T03:53:44.806Z,24.46
2018-05-09T03:54:44.799Z,24.46
2018-05-09T03:56:05.804Z,24.44
2018-05-09T03:56:44.788Z,24.46
2018-05-09T03:57:44.785Z,24.41
2018-05-09T03:58:44.785Z,24.40
2018-05-09T03:59:44.773Z,24.47
2018-05-09T04:00:44.772Z,24.50
2018-05-09T04:02:05.784Z,24.43
2018-05-09T04:02:44.762Z,24.53
2018-05-09T04:03:44.755Z,24.55
2018-05-09T04:04:44.754Z,24.55
2018-05-09T04:05:44.744Z,24.58
2018-05-09T04:06:44.735Z,24.62
2018-05-09T04:08:05.735Z,24.62
2018-05-09T04:08:44.723Z,24.65
2018-05-09T04:09:44.713Z,24.66
2018-05-09T04:10:44.710Z,24.68
2018-05-09T04:11:44.708Z,24.78
2018-05-09T04:12:44.696Z,24.74
2018-05-09T04:14:05.696Z,24.78
2018-05-09T04:14:44.756Z,24.75
2018-05-09T04:15:44.677Z,24.78
2018-05-09T04:16:44.679Z,24.81
2018-05-09T04:17:44.684Z,24.78
2018-05-09T04:18:44.704Z,24.82
2018-05-09T04:20:05.664Z,24.69
2018-05-09T04:20:44.790Z,24.74
2018-05-09T04:21:44.654Z,24.78
2018-05-09T04:22:44.639Z,24.78
2018-05-09T04:23:44.638Z,24.78
2018-05-09T04:24:44.626Z,24.74
2018-05-09T04:26:05.631Z,24.77
2018-05-09T04:26:44.616Z,24.84
2018-05-09T04:27:44.604Z,24.71
2018-05-09T04:28:44.604Z,24.78
2018-05-09T04:29:44.597Z,24.81
2018-05-09T04:30:44.590Z,24.77
2018-05-09T04:32:05.585Z,24.77
2018-05-09T04:32:44.581Z,24.78
2018-05-09T04:33:44.577Z,24.77
2018-05-09T04:34:44.567Z,24.78
2018-05-09T04:35:44.560Z,24.77
2018-05-09T04:36:44.550Z,24.79
2018-05-09T04:38:05.554Z,24.81
2018-05-09T04:38:44.547Z,24.77
2018-05-09T04:39:44.540Z,24.78
2018-05-09T04:40:44.530Z,24.77
2018-05-09T04:41:44.517Z,24.81
2018-05-09T04:42:44.513Z,24.78
2018-05-09T04:44:05.510Z,24.75
2018-05-09T04:44:44.499Z,24.79
2018-05-09T04:45:44.498Z,24.77
2018-05-09T04:46:44.499Z,24.78
2018-05-09T04:47:44.484Z,24.81
2018-05-09T04:48:44.481Z,24.65
2018-05-09T04:50:05.472Z,24.75
2018-05-09T04:50:44.468Z,24.74
2018-05-09T04:51:44.461Z,24.78
2018-05-09T04:52:44.454Z,24.75
2018-05-09T04:53:44.444Z,24.78
2018-05-09T04:54:44.446Z,24.75
2018-05-09T04:56:05.440Z,24.78
2018-05-09T04:56:44.424Z,24.77
2018-05-09T04:57:44.420Z,24.75
2018-05-09T04:58:44.409Z,24.69
2018-05-09T04:59:44.406Z,24.68
2018-05-09T05:00:44.395Z,24.78
2018-05-09T05:02:05.396Z,24.68
2018-05-09T05:02:44.383Z,24.66
2018-05-09T05:03:44.382Z,24.71
2018-05-09T05:04:44.387Z,24.71
2018-05-09T05:05:44.376Z,24.69
2018-05-09T05:06:44.363Z,24.69
2018-05-09T05:08:05.365Z,24.71
2018-05-09T05:08:44.353Z,24.75
2018-05-09T05:09:44.345Z,24.66
2018-05-09T05:10:44.341Z,24.65
2018-05-09T05:11:44.325Z,24.68
2018-05-09T05:12:44.317Z,24.65
2018-05-09T05:14:05.319Z,24.69
2018-05-09T05:14:44.311Z,24.75
2018-05-09T05:15:44.348Z,24.65
2018-05-09T05:16:44.303Z,24.74
2018-05-09T05:17:44.288Z,24.75
2018-05-09T05:18:44.289Z,24.65
2018-05-09T05:20:05.288Z,24.68
2018-05-09T05:20:44.283Z,24.69
2018-05-09T05:21:44.275Z,24.69
2018-05-09T05:22:44.263Z,24.65
2018-05-09T05:23:44.254Z,24.68
2018-05-09T05:24:44.251Z,24.63
2018-05-09T05:26:05.257Z,24.65
2018-05-09T05:26:44.235Z,24.65
2018-05-09T05:27:44.222Z,24.77
2018-05-09T05:28:44.216Z,24.75
2018-05-09T05:29:44.215Z,24.81
2018-05-09T05:30:44.206Z,24.74
2018-05-09T05:32:05.209Z,24.79
2018-05-09T05:32:44.263Z,24.84
2018-05-09T05:33:44.190Z,24.79
2018-05-09T05:34:44.186Z,24.79
2018-05-09T05:35:44.175Z,24.86
2018-05-09T05:36:44.173Z,24.85
2018-05-09T05:38:05.178Z,24.85
2018-05-09T05:38:44.164Z,24.86
2018-05-09T05:39:44.149Z,24.84
2018-05-09T05:40:44.142Z,24.85
2018-05-09T05:41:44.138Z,24.84
2018-05-09T05:42:44.132Z,24.85
2018-05-09T05:44:05.127Z,24.86
2018-05-09T05:44:44.119Z,24.82
2018-05-09T05:45:44.111Z,24.82
2018-05-09T05:46:44.105Z,24.86
2018-05-09T05:47:44.098Z,24.86
2018-05-09T05:48:44.096Z,24.85
2018-05-09T05:50:05.103Z,24.88
2018-05-09T05:50:44.082Z,24.85
2018-05-09T05:51:44.083Z,24.88
2018-05-09T05:52:44.069Z,24.85
2018-05-09T05:53:44.067Z,24.88
2018-05-09T05:54:44.063Z,24.96
2018-05-09T05:56:05.128Z,24.86
2018-05-09T05:56:44.041Z,24.88
2018-05-09T05:57:44.033Z,24.86
2018-05-09T05:58:44.028Z,24.89
2018-05-09T05:59:44.020Z,24.85
2018-05-09T06:00:44.016Z,25.00
2018-05-09T06:02:05.016Z,24.88
2018-05-09T06:02:44.005Z,24.97
2018-05-09T06:03:43.998Z,24.99
2018-05-09T06:04:43.994Z,24.97
2018-05-09T06:05:43.989Z,24.99
2018-05-09T06:06:43.983Z,24.99
2018-05-09T06:08:05.103Z,24.93
2018-05-09T06:08:43.966Z,25.00
2018-05-09T06:09:43.966Z,24.97
2018-05-09T06:10:43.962Z,25.01
2018-05-09T06:11:43.946Z,25.03
2018-05-09T06:12:43.966Z,25.06
2018-05-09T06:14:04.940Z,24.99
2018-05-09T06:14:43.924Z,25.07
2018-05-09T06:15:43.918Z,25.04
2018-05-09T06:16:43.915Z,25.01
2018-05-09T06:17:43.920Z,25.09
2018-05-09T06:18:43.903Z,25.06
2018-05-09T06:20:04.903Z,25.07
2018-05-09T06:20:43.899Z,25.18
2018-05-09T06:21:43.885Z,25.18
2018-05-09T06:22:43.878Z,25.09
2018-05-09T06:23:43.878Z,25.16
2018-05-09T06:24:43.867Z,25.16
2018-05-09T06:26:04.878Z,25.14
2018-05-09T06:26:43.854Z,25.19
2018-05-09T06:27:43.848Z,25.24
2018-05-09T06:28:43.838Z,25.21
2018-05-09T06:29:43.835Z,25.21
2018-05-09T06:30:43.835Z,25.24
2018-05-09T06:32:04.827Z,25.18
2018-05-09T06:32:43.826Z,25.21
2018-05-09T06:33:43.812Z,25.19
2018-05-09T06:34:43.802Z,25.25
2018-05-09T06:35:43.828Z,25.22
2018-05-09T06:36:43.795Z,25.21
2018-05-09T06:38:04.792Z,25.22
2018-05-09T06:38:43.782Z,25.21
2018-05-09T06:39:43.773Z,25.24
2018-05-09T06:40:43.771Z,25.25
2018-05-09T06:41:43.795Z,25.25
2018-05-09T06:42:43.758Z,25.22
2018-05-09T06:44:04.808Z,25.29
2018-05-09T06:44:43.739Z,25.26
2018-05-09T06:45:43.735Z,25.25
2018-05-09T06:46:43.729Z,25.24
2018-05-09T06:47:43.725Z,25.37
2018-05-09T06:48:43.726Z,25.37
2018-05-09T06:50:04.822Z,25.43
2018-05-09T06:50:43.721Z,25.37
2018-05-09T06:51:43.701Z,25.39
2018-05-09T06:52:43.692Z,25.34
2018-05-09T06:53:43.691Z,25.40
2018-05-09T06:54:43.688Z,25.37
2018-05-09T06:56:04.684Z,25.37
2018-05-09T06:56:43.670Z,25.44
2018-05-09T06:57:43.674Z,25.52
2018-05-09T06:58:43.654Z,25.44
2018-05-09T06:59:43.651Z,25.46
2018-05-09T07:00:43.643Z,25.49
2018-05-09T07:02:04.640Z,25.52
2018-05-09T07:02:43.633Z,25.49
2018-05-09T07:03:43.622Z,25.56
2018-05-09T07:04:43.655Z,25.46
2018-05-09T07:05:43.648Z,25.52
2018-05-09T07:06:43.785Z,25.52
2018-05-09T07:08:04.606Z,25.58
2018-05-09T07:08:43.599Z,25.54
2018-05-09T07:09:43.596Z,25.52
2018-05-09T07:10:43.587Z,25.61
2018-05-09T07:11:43.593Z,25.58
2018-05-09T07:12:43.575Z,25.59
2018-05-09T07:14:04.574Z,25.61
2018-05-09T07:14:43.556Z,25.59
2018-05-09T07:15:43.552Z,25.59
2018-05-09T07:16:43.545Z,25.67
2018-05-09T07:17:43.539Z,25.71
2018-05-09T07:18:43.532Z,25.70
2018-05-09T07:20:04.533Z,25.68
2018-05-09T07:20:43.527Z,25.74
2018-05-09T07:21:43.522Z,25.74
2018-05-09T07:22:43.511Z,25.77
2018-05-09T07:23:43.506Z,25.81
2018-05-09T07:24:43.566Z,25.86
2018-05-09T07:26:04.504Z,25.86
2018-05-09T07:26:43.491Z,25.86
2018-05-09T07:27:43.484Z,25.89
2018-05-09T07:28:43.487Z,25.95
2018-05-09T07:29:43.471Z,25.91
2018-05-09T07:30:43.463Z,26.01
2018-05-09T07:32:04.471Z,25.95
2018-05-09T07:32:43.453Z,26.01
2018-05-09T07:33:43.444Z,25.96
2018-05-09T07:34:43.453Z,25.98
2018-05-09T07:35:43.433Z,26.06
2018-05-09T07:36:43.437Z,26.11
2018-05-09T07:38:04.432Z,26.13
2018-05-09T07:38:43.427Z,26.01
2018-05-09T07:39:43.419Z,25.99
2018-05-09T07:40:43.407Z,26.03
2018-05-09T07:41:43.396Z,26.10
2018-05-09T07:42:43.413Z,26.13
2018-05-09T07:44:04.395Z,26.16
2018-05-09T07:44:43.385Z,26.10
2018-05-09T07:45:43.379Z,26.30
2018-05-09T07:46:43.372Z,26.26
2018-05-09T07:47:43.464Z,26.23
2018-05-09T07:48:43.358Z,26.33
2018-05-09T07:50:04.360Z,26.33
2018-05-09T07:50:43.347Z,26.34
2018-05-09T07:51:43.381Z,26.37
2018-05-09T07:52:43.337Z,26.29
2018-05-09T07:53:43.330Z,26.36
2018-05-09T07:54:43.337Z,26.39
2018-05-09T07:56:04.325Z,26.44
2018-05-09T07:56:43.326Z,26.45
2018-05-09T07:57:43.310Z,26.44
2018-05-09T07:58:43.314Z,26.48
2018-05-09T07:59:43.315Z,26.46
2018-05-09T08:00:43.299Z,26.49
2018-05-09T08:02:04.303Z,26.53
2018-05-09T08:02:43.286Z,26.51
2018-05-09T08:03:43.294Z,26.59
2018-05-09T08:04:43.268Z,26.52
2018-05-09T08:05:43.266Z,26.55
2018-05-09T08:06:43.255Z,26.59
2018-05-09T08:08:04.258Z,26.60
2018-05-09T08:08:43.250Z,26.52
2018-05-09T08:09:43.245Z,26.64
2018-05-09T08:10:43.246Z,26.64
2018-05-09T08:11:43.233Z,26.64
2018-05-09T08:12:43.271Z,26.63
2018-05-09T08:14:04.241Z,26.76
2018-05-09T08:14:43.221Z,26.78
2018-05-09T08:15:43.211Z,26.70
2018-05-09T08:16:43.213Z,26.85
2018-05-09T08:17:43.207Z,26.67
2018-05-09T08:18:43.197Z,26.82
2018-05-09T08:20:04.200Z,26.86
2018-05-09T08:20:43.186Z,26.83
2018-05-09T08:21:43.176Z,26.83
2018-05-09T08:22:43.177Z,26.81
2018-05-09T08:23:43.226Z,26.86
2018-05-09T08:24:43.160Z,26.83
2018-05-09T08:26:04.167Z,26.79
2018-05-09T08:26:43.152Z,26.76
2018-05-09T08:27:43.143Z,26.93
2018-05-09T08:28:43.152Z,26.89
2018-05-09T08:29:43.137Z,26.86
2018-05-09T08:30:43.132Z,26.92
2018-05-09T08:32:04.135Z,26.86
2018-05-09T08:32:43.122Z,26.79
2018-05-09T08:33:43.121Z,26.86
2018-05-09T08:34:43.117Z,26.79
2018-05-09T08:35:43.115Z,26.86
2018-05-09T08:36:43.107Z,26.85
2018-05-09T08:38:04.106Z,26.92
2018-05-09T08:38:43.101Z,26.97
2018-05-09T08:39:43.090Z,26.96
2018-05-09T08:40:43.077Z,26.98
2018-05-09T08:41:43.075Z,27.07
2018-05-09T08:42:43.064Z,27.03
2018-05-09T08:44:04.276Z,27.07
2018-05-09T08:44:43.061Z,27.20
2018-05-09T08:45:43.052Z,27.15
2018-05-09T08:46:43.059Z,27.20
2018-05-09T08:47:43.040Z,27.18
2018-05-09T08:48:43.043Z,27.23
2018-05-09T08:50:04.052Z,27.29
2018-05-09T08:50:43.036Z,27.16
2018-05-09T08:51:43.027Z,27.22
2018-05-09T08:52:43.023Z,27.22
2018-05-09T08:53:43.023Z,27.29
2018-05-09T08:54:43.008Z,27.33
2018-05-09T08:56:04.008Z,27.30
2018-05-09T08:56:42.999Z,27.30
2018-05-09T08:57:42.994Z,27.35
2018-05-09T08:58:42.987Z,27.34
2018-05-09T08:59:42.982Z,27.40
2018-05-09T09:00:42.981Z,27.38
2018-05-09T09:02:03.979Z,27.30
2018-05-09T09:02:42.965Z,27.52
2018-05-09T09:03:42.965Z,27.45
2018-05-09T09:04:42.953Z,27.52
2018-05-09T09:05:42.960Z,27.53
2018-05-09T09:06:42.946Z,27.43
2018-05-09T09:08:03.949Z,27.60
2018-05-09T09:08:42.945Z,27.47
2018-05-09T09:09:42.946Z,27.47
2018-05-09T09:10:42.937Z,27.53
2018-05-09T09:11:42.936Z,27.50
2018-05-09T09:12:42.922Z,27.57
2018-05-09T09:14:03.921Z,27.55
2018-05-09T09:14:42.913Z,27.55
2018-05-09T09:15:42.937Z,27.58
2018-05-09T09:16:42.906Z,27.58
2018-05-09T09:17:42.895Z,27.66
2018-05-09T09:18:42.906Z,27.63
2018-05-09T09:20:03.899Z,27.66
2018-05-09T09:20:42.916Z,27.67
2018-05-09T09:21:42.872Z,27.63
2018-05-09T09:22:42.870Z,27.75
2018-05-09T09:23:42.916Z,27.71
2018-05-09T09:24:42.862Z,27.67
2018-05-09T09:26:03.862Z,27.67
2018-05-09T09:26:42.887Z,27.73
2018-05-09T09:27:42.873Z,27.72
2018-05-09T09:28:42.846Z,27.75
2018-05-09T09:29:42.850Z,27.79
2018-05-09T09:30:42.835Z,27.78
2018-05-09T09:32:03.835Z,27.79
2018-05-09T09:32:42.829Z,27.81
2018-05-09T09:33:42.825Z,27.78
2018-05-09T09:34:42.812Z,27.78
2018-05-09T09:35:42.817Z,27.85
2018-05-09T09:36:42.801Z,27.76
2018-05-09T09:38:03.811Z,27.78
2018-05-09T09:38:42.791Z,27.88
2018-05-09T09:39:42.787Z,27.88
2018-05-09T09:40:42.783Z,27.93
2018-05-09T09:41:42.781Z,27.91
2018-05-09T09:42:42.781Z,27.90
2018-05-09T09:44:03.777Z,27.95
2018-05-09T09:44:42.764Z,27.91
2018-05-09T09:45:42.760Z,28.01
2018-05-09T09:46:42.760Z,27.95
2018-05-09T09:47:42.749Z,28.00
2018-05-09T09:48:42.749Z,28.00
2018-05-09T09:50:03.746Z,27.88
2018-05-09T09:50:42.768Z,28.04
2018-05-09T09:51:42.741Z,28.04
2018-05-09T09:52:42.734Z,28.03
2018-05-09T09:53:42.735Z,28.03
2018-05-09T09:54:42.725Z,28.04
2018-05-09T09:56:03.724Z,28.04
2018-05-09T09:56:42.718Z,27.97
2018-05-09T09:57:42.708Z,28.04
2018-05-09T09:58:42.703Z,27.98
2018-05-09T09:59:42.698Z,28.01
2018-05-09T10:00:42.693Z,28.09
2018-05-09T10:02:03.694Z,28.08
2018-05-09T10:02:42.688Z,28.13
2018-05-09T10:03:42.683Z,28.03
2018-05-09T10:04:42.681Z,28.15
2018-05-09T10:05:42.677Z,28.10
2018-05-09T10:06:42.666Z,28.10
2018-05-09T10:08:03.676Z,28.08
2018-05-09T10:08:42.658Z,28.10
2018-05-09T10:09:42.671Z,28.13
2018-05-09T10:10:42.652Z,28.23
2018-05-09T10:11:42.663Z,28.20
2018-05-09T10:12:42.646Z,28.27
2018-05-09T10:14:03.648Z,28.19
2018-05-09T10:14:42.638Z,28.22
2018-05-09T10:15:42.632Z,28.23
2018-05-09T10:16:42.631Z,28.18
2018-05-09T10:17:42.622Z,28.19
2018-05-09T10:18:42.616Z,28.28
2018-05-09T10:20:03.618Z,28.23
2018-05-09T10:20:42.609Z,28.25
2018-05-09T10:21:42.604Z,28.28
2018-05-09T10:22:42.597Z,28.31
2018-05-09T10:23:42.597Z,28.31
2018-05-09T10:24:42.585Z,28.33
2018-05-09T10:26:03.593Z,28.35
2018-05-09T10:26:42.578Z,28.35
2018-05-09T10:27:42.574Z,28.35
2018-05-09T10:28:42.572Z,28.38
2018-05-09T10:29:42.572Z,28.31
2018-05-09T10:30:42.588Z,28.38
2018-05-09T10:32:03.572Z,28.46
2018-05-09T10:32:42.554Z,28.46
2018-05-09T10:33:42.552Z,28.41
2018-05-09T10:34:42.553Z,28.47
2018-05-09T10:35:42.540Z,28.38
2018-05-09T10:36:42.541Z,28.46
2018-05-09T10:38:03.546Z,28.46
2018-05-09T10:38:42.534Z,28.43
2018-05-09T10:39:42.519Z,28.52
2018-05-09T10:40:42.521Z,28.50
2018-05-09T10:41:42.513Z,28.46
2018-05-09T10:42:42.510Z,28.47
2018-05-09T10:44:03.522Z,28.56
2018-05-09T10:44:42.501Z,28.53
2018-05-09T10:45:42.498Z,28.47
2018-05-09T10:46:42.495Z,28.46
2018-05-09T10:47:42.485Z,28.46
2018-05-09T10:48:42.488Z,28.45
2018-05-09T10:50:03.487Z,28.47
2018-05-09T10:50:42.554Z,28.49
2018-05-09T10:51:42.477Z,28.47
2018-05-09T10:52:42.469Z,28.46
2018-05-09T10:53:42.473Z,28.47
2018-05-09T10:54:42.465Z,28.46
2018-05-09T10:56:03.467Z,28.49
2018-05-09T10:56:42.456Z,28.50
2018-05-09T10:57:42.453Z,28.47
2018-05-09T10:58:42.444Z,28.50
2018-05-09T10:59:42.449Z,28.52
2018-05-09T11:00:42.440Z,28.53
2018-05-09T11:02:03.534Z,28.52
2018-05-09T11:02:42.427Z,28.46
2018-05-09T11:03:42.420Z,28.38
2018-05-09T11:04:42.418Z,28.27
2018-05-09T11:05:42.416Z,28.27
2018-05-09T11:06:42.410Z,28.28
2018-05-09T11:08:03.408Z,28.31
2018-05-09T11:08:42.405Z,28.25
2018-05-09T11:09:42.397Z,28.23
2018-05-09T11:10:42.397Z,28.28
2018-05-09T11:11:42.392Z,28.20
2018-05-09T11:12:42.384Z,28.16
2018-05-09T11:14:03.386Z,28.13
2018-05-09T11:14:42.372Z,28.15
2018-05-09T11:15:42.381Z,28.15
2018-05-09T11:16:42.378Z,28.13
2018-05-09T11:17:42.368Z,28.01
2018-05-09T11:18:42.361Z,27.97
2018-05-09T11:20:03.366Z,27.95
2018-05-09T11:20:42.371Z,28.08
2018-05-09T11:21:42.349Z,27.94
2018-05-09T11:22:42.346Z,27.93
2018-05-09T11:23:42.343Z,27.82
2018-05-09T11:24:42.384Z,27.79
2018-05-09T11:26:03.339Z,27.78
2018-05-09T11:26:42.329Z,27.76
2018-05-09T11:27:42.322Z,27.66
2018-05-09T11:28:42.348Z,27.73
2018-05-09T11:29:42.346Z,27.75
2018-05-09T11:30:42.334Z,27.72
2018-05-09T11:32:03.305Z,27.67
2018-05-09T11:32:42.305Z,27.64
2018-05-09T11:33:42.300Z,27.64
2018-05-09T11:34:42.289Z,27.67
2018-05-09T11:35:42.285Z,27.68
2018-05-09T11:36:42.287Z,27.67
2018-05-09T11:38:03.284Z,27.71
2018-05-09T11:38:42.277Z,27.67
2018-05-09T11:39:42.271Z,27.71
2018-05-09T11:40:42.270Z,27.72
2018-05-09T11:41:42.277Z,27.68
2018-05-09T11:42:42.259Z,27.71
2018-05-09T11:44:03.252Z,27.66
2018-05-09T11:44:42.256Z,27.76
2018-05-09T11:45:42.236Z,27.72
2018-05-09T11:46:42.235Z,27.78
2018-05-09T11:47:42.229Z,27.78
2018-05-09T11:48:42.228Z,27.75
2018-05-09T11:50:03.228Z,27.79
2018-05-09T11:50:42.216Z,27.81
2018-05-09T11:51:42.215Z,27.79
2018-05-09T11:52:42.207Z,27.75
2018-05-09T11:53:42.210Z,27.68
2018-05-09T11:54:42.201Z,27.76
2018-05-09T11:56:03.199Z,27.75
2018-05-09T11:56:42.188Z,27.85
2018-05-09T11:57:42.189Z,27.81
2018-05-09T11:58:42.183Z,27.76
2018-05-09T11:59:42.180Z,27.83
2018-05-09T12:00:42.175Z,27.78
2018-05-09T12:02:03.174Z,27.82
2018-05-09T12:02:42.171Z,27.83
2018-05-09T12:03:42.159Z,27.82
2018-05-09T12:04:42.157Z,27.81
2018-05-09T12:05:42.146Z,27.86
2018-05-09T12:06:42.142Z,27.83
2018-05-09T12:08:03.153Z,27.86
2018-05-09T12:08:42.136Z,27.86
2018-05-09T12:09:42.133Z,27.90
2018-05-09T12:10:42.256Z,27.93
2018-05-09T12:11:42.121Z,27.93
2018-05-09T12:12:42.116Z,27.91
2018-05-09T12:14:03.123Z,27.91
2018-05-09T12:14:42.113Z,27.93
2018-05-09T12:15:42.100Z,27.91
2018-05-09T12:16:42.099Z,27.91
2018-05-09T12:17:42.091Z,27.90
2018-05-09T12:18:42.108Z,27.95
2018-05-09T12:20:03.100Z,27.82
2018-05-09T12:20:42.094Z,27.82
2018-05-09T12:21:42.081Z,27.79
2018-05-09T12:22:42.080Z,27.76
2018-05-09T12:23:42.070Z,27.83
2018-05-09T12:24:42.203Z,27.76
2018-05-09T12:26:03.075Z,27.81
2018-05-09T12:26:42.067Z,27.81
2018-05-09T12:27:42.065Z,27.88
2018-05-09T12:28:42.040Z,27.83
2018-05-09T12:29:42.041Z,27.75
2018-05-09T12:30:42.034Z,27.85
2018-05-09T12:32:03.036Z,27.79
2018-05-09T12:32:42.027Z,27.81
2018-05-09T12:33:42.022Z,27.78
2018-05-09T12:34:42.016Z,27.81
2018-05-09T12:35:42.010Z,27.72
2018-05-09T12:36:42.009Z,27.67
2018-05-09T12:38:03.011Z,27.67
2018-05-09T12:38:42.002Z,27.64
2018-05-09T12:39:41.998Z,27.66
2018-05-09T12:40:41.990Z,27.68
2018-05-09T12:41:41.988Z,27.68
2018-05-09T12:42:41.994Z,27.68
2018-05-09T12:44:02.984Z,27.71
2018-05-09T12:44:41.973Z,27.64
2018-05-09T12:45:41.972Z,27.67
2018-05-09T12:46:41.965Z,27.67
2018-05-09T12:47:41.953Z,27.61
2018-05-09T12:48:42.032Z,27.64
2018-05-09T12:50:02.955Z,27.63
2018-05-09T12:50:41.942Z,27.66
2018-05-09T12:51:41.935Z,27.68
2018-05-09T12:52:41.929Z,27.64